createdAt,value
2019-05-18T00:03:29.448Z,100427.41
2019-05-18T00:08:33.461Z,100429.75
2019-05-18T00:13:37.832Z,100426.80
2019-05-18T00:18:41.898Z,100422.48
2019-05-18T00:23:45.893Z,100432.23
2019-05-18T00:28:49.940Z,100417.34
2019-05-18T00:33:54.013Z,100419.74
2019-05-18T00:38:57.995Z,100418.16
2019-05-18T00:44:02.023Z,100421.11
2019-05-18T00:49:07.360Z,100426.14
2019-05-18T00:54:11.401Z,100422.69
2019-05-18T00:59:16.341Z,100415.19
2019-05-18T01:04:20.860Z,100419.12
2019-05-18T01:09:24.910Z,100418.16
2019-05-18T01:14:29.089Z,100422.30
2019-05-18T01:19:33.104Z,100416.64
2019-05-18T01:24:37.165Z,100422.68
2019-05-18T01:29:41.179Z,100420.02
2019-05-18T01:34:45.555Z,100420.33
2019-05-18T01:39:49.946Z,100411.34
2019-05-18T01:44:53.971Z,100406.86
2019-05-18T01:49:57.981Z,100425.25
2019-05-18T01:55:02.027Z,100428.28
2019-05-18T02:00:06.797Z,100428.95
2019-05-18T02:05:11.925Z,100425.77
2019-05-18T02:10:17.080Z,100430.77
2019-05-18T02:15:21.219Z,100431.10
2019-05-18T02:20:25.292Z,100426.75
2019-05-18T02:25:29.328Z,100436.00
2019-05-18T02:30:33.334Z,100437.33
2019-05-18T02:35:37.363Z,100434.16
2019-05-18T02:40:41.544Z,100431.28
2019-05-18T02:45:45.963Z,100430.43
2019-05-18T02:50:50.143Z,100426.56
2019-05-18T02:55:54.142Z,100426.20
2019-05-18T03:00:58.196Z,100417.67
2019-05-18T03:06:02.822Z,100418.80
2019-05-18T03:11:07.285Z,100418.50
2019-05-18T03:16:11.360Z,100422.78
2019-05-18T03:21:15.601Z,100408.59
2019-05-18T03:26:19.625Z,100422.53
2019-05-18T03:31:23.709Z,100427.78
2019-05-18T03:36:27.696Z,100430.98
2019-05-18T03:41:32.012Z,100428.84
2019-05-18T03:46:36.140Z,100433.43
2019-05-18T03:51:40.163Z,100431.63
2019-05-18T03:56:44.677Z,100429.38
2019-05-18T04:01:49.152Z,100427.28
2019-05-18T04:06:53.215Z,100424.91
2019-05-18T04:11:57.333Z,100427.06
2019-05-18T04:17:01.329Z,100423.83
2019-05-18T04:22:05.671Z,100424.92
2019-05-18T04:27:09.743Z,100417.61
2019-05-18T04:32:13.771Z,100400.25
2019-05-18T04:37:17.778Z,100401.45
2019-05-18T04:42:21.770Z,100409.68
2019-05-18T04:47:25.838Z,100413.18
2019-05-18T04:52:30.261Z,100420.36
2019-05-18T04:57:34.340Z,100411.77
2019-05-18T05:02:38.709Z,100407.53
2019-05-18T05:07:42.772Z,100406.64
2019-05-18T05:12:47.157Z,100415.48
2019-05-18T05:17:51.356Z,100418.73
2019-05-18T05:22:55.365Z,100416.23
2019-05-18T05:27:59.729Z,100416.31
2019-05-18T05:33:04.384Z,100418.05
2019-05-18T05:38:08.700Z,100410.97
2019-05-18T05:43:12.768Z,100411.21
2019-05-18T05:48:16.830Z,100407.59
2019-05-18T05:53:22.000Z,100412.91
2019-05-18T05:58:26.303Z,100417.91
2019-05-18T06:03:30.376Z,100411.14
2019-05-18T06:08:34.439Z,100418.12
2019-05-18T06:13:38.633Z,100413.02
2019-05-18T06:18:43.302Z,100406.59
2019-05-18T06:23:47.359Z,100409.80
2019-05-18T06:28:51.406Z,100411.65
2019-05-18T06:33:55.414Z,100415.89
2019-05-18T06:38:59.437Z,100416.61
2019-05-18T06:44:03.509Z,100423.22
2019-05-18T06:49:07.572Z,100421.55
2019-05-18T06:54:11.921Z,100408.74
2019-05-18T06:59:16.933Z,100412.09
2019-05-18T07:04:21.307Z,100405.95
2019-05-18T07:09:25.261Z,100402.79
2019-05-18T07:14:29.652Z,100415.90
2019-05-18T07:19:33.754Z,100408.69
2019-05-18T07:24:37.780Z,100399.67
2019-05-18T07:29:41.798Z,100399.52
2019-05-18T07:34:45.822Z,100394.29
2019-05-18T07:39:49.969Z,100392.43
2019-05-18T07:44:54.112Z,100390.14
2019-05-18T07:49:58.113Z,100380.72
2019-05-18T07:55:03.055Z,100362.37
2019-05-18T08:00:07.626Z,100366.16
2019-05-18T08:05:11.622Z,100362.17
2019-05-18T08:10:18.637Z,100359.31
2019-05-18T08:15:23.978Z,100352.13
2019-05-18T08:20:28.471Z,100345.58
2019-05-18T08:25:32.528Z,100344.92
2019-05-18T08:30:36.555Z,100346.16
2019-05-18T08:35:40.562Z,100340.34
2019-05-18T08:40:44.614Z,100328.03
2019-05-18T08:45:48.619Z,100339.41
2019-05-18T08:50:53.753Z,100327.58
2019-05-18T08:55:57.781Z,100324.07
2019-05-18T09:01:01.861Z,100317.64
2019-05-18T09:06:05.924Z,100317.03
2019-05-18T09:11:09.974Z,100316.00
2019-05-18T09:16:14.153Z,100318.00
2019-05-18T09:21:18.221Z,100308.23
2019-05-18T09:26:22.249Z,100301.31
2019-05-18T09:31:27.038Z,100299.92
2019-05-18T09:36:31.148Z,100304.47
2019-05-18T09:41:35.311Z,100300.79
2019-05-18T09:46:39.348Z,100290.09
2019-05-18T09:51:43.632Z,100281.16
2019-05-18T09:56:47.865Z,100282.16
2019-05-18T10:01:51.973Z,100279.28
2019-05-18T10:06:56.011Z,100276.92
2019-05-18T10:12:00.410Z,100278.77
2019-05-18T10:17:04.715Z,100264.25
2019-05-18T10:22:08.821Z,100251.42
2019-05-18T10:27:13.069Z,100240.63
2019-05-18T10:32:17.082Z,100241.06
2019-05-18T10:37:21.281Z,100248.95
2019-05-18T10:42:25.346Z,100238.48
2019-05-18T10:47:29.477Z,100222.41
2019-05-18T10:52:33.550Z,100210.41
2019-05-18T10:57:38.058Z,100205.20
2019-05-18T11:02:42.622Z,100204.73
2019-05-18T11:07:46.652Z,100200.11
2019-05-18T11:12:50.822Z,100205.07
2019-05-18T11:17:54.870Z,100193.21
2019-05-18T11:22:58.895Z,100193.40
2019-05-18T11:28:02.995Z,100180.84
2019-05-18T11:33:07.032Z,100184.80
2019-05-18T11:38:11.056Z,100179.89
2019-05-18T11:43:15.300Z,100169.42
2019-05-18T11:48:19.336Z,100182.46
2019-05-18T11:53:23.360Z,100172.63
2019-05-18T11:58:27.516Z,100173.34
2019-05-18T12:03:31.851Z,100161.02
2019-05-18T12:08:36.344Z,100170.15
2019-05-18T12:13:40.545Z,100165.87
2019-05-18T12:18:44.753Z,100163.72
2019-05-18T12:23:48.784Z,100162.43
2019-05-18T12:28:52.827Z,100167.83
2019-05-18T12:33:56.877Z,100159.37
2019-05-18T12:39:00.909Z,100162.97
2019-05-18T12:44:04.926Z,100149.78
2019-05-18T12:49:09.360Z,100146.16
2019-05-18T12:54:13.392Z,100149.69
2019-05-18T12:59:17.823Z,100146.05
2019-05-18T13:04:21.848Z,100138.22
2019-05-18T13:09:25.867Z,100147.23
2019-05-18T13:14:29.981Z,100147.62
2019-05-18T13:19:34.045Z,100145.34
2019-05-18T13:24:45.222Z,100137.91
2019-05-18T13:29:43.813Z,100137.08
2019-05-18T13:34:47.939Z,100128.00
2019-05-18T13:39:52.063Z,100118.52
2019-05-18T13:44:56.398Z,100123.99
2019-05-18T13:50:00.858Z,100116.88
2019-05-18T13:55:05.384Z,100120.19
2019-05-18T14:00:10.261Z,100110.00
2019-05-18T14:05:14.650Z,100105.71
2019-05-18T14:10:19.338Z,100104.71
2019-05-18T14:15:23.569Z,100106.88
2019-05-18T14:20:27.751Z,100097.27
2019-05-18T14:25:32.053Z,100104.07
2019-05-18T14:30:36.282Z,100103.89
2019-05-18T14:35:41.227Z,100090.12
2019-05-18T14:40:45.403Z,100090.33
2019-05-18T14:45:49.756Z,100081.41
2019-05-18T14:50:53.958Z,100097.82
2019-05-18T14:55:57.992Z,100097.54
2019-05-18T15:01:02.262Z,100098.37
2019-05-18T15:06:06.944Z,100090.72
2019-05-18T15:11:10.982Z,100090.17
2019-05-18T15:16:15.057Z,100096.20
2019-05-18T15:21:19.122Z,100093.30
2019-05-18T15:26:23.100Z,100095.75
2019-05-18T15:31:27.163Z,100095.16
2019-05-18T15:36:31.749Z,100096.91
2019-05-18T15:41:35.862Z,100084.25
2019-05-18T15:46:39.929Z,100085.91
2019-05-18T15:51:43.944Z,100092.66
2019-05-18T15:56:48.036Z,100077.93
2019-05-18T16:01:52.112Z,100079.89
2019-05-18T16:06:56.165Z,100076.27
2019-05-18T16:12:00.439Z,100079.97
2019-05-18T16:17:04.467Z,100078.09
2019-05-18T16:22:08.565Z,100073.72
2019-05-18T16:27:12.895Z,100075.41
2019-05-18T16:32:17.217Z,100072.03
2019-05-18T16:37:21.278Z,100070.33
2019-05-18T16:42:25.291Z,100070.38
2019-05-18T16:47:29.311Z,100073.41
2019-05-18T16:52:33.717Z,100080.11
2019-05-18T16:57:37.802Z,100078.13
2019-05-18T17:02:41.811Z,100075.13
2019-05-18T17:07:46.250Z,100069.19
2019-05-18T17:12:50.431Z,100076.47
2019-05-18T17:17:54.478Z,100070.17
2019-05-18T17:23:02.525Z,100077.59
2019-05-18T17:28:07.137Z,100072.65
2019-05-18T17:33:11.292Z,100072.92
2019-05-18T17:38:15.333Z,100078.42
2019-05-18T17:43:20.474Z,100070.61
2019-05-18T17:48:24.860Z,100073.45
2019-05-18T17:53:29.341Z,100072.18
2019-05-18T17:58:33.494Z,100080.27
2019-05-18T18:03:37.768Z,100074.81
2019-05-18T18:08:42.249Z,100078.48
2019-05-18T18:13:48.013Z,100084.29
2019-05-18T18:18:52.285Z,100088.47
2019-05-18T18:23:58.648Z,100083.56
2019-05-18T18:29:04.385Z,100089.02
2019-05-18T18:34:11.580Z,100089.63
2019-05-18T18:39:16.143Z,100097.41
2019-05-18T18:44:21.794Z,100087.91
2019-05-18T18:49:27.032Z,100095.27
2019-05-18T18:54:33.551Z,100097.10
2019-05-18T18:59:40.127Z,100107.22
2019-05-18T19:04:47.931Z,100107.27
2019-05-18T19:09:53.643Z,100117.66
2019-05-18T19:15:02.723Z,100124.58
2019-05-18T19:20:09.531Z,100134.41
2019-05-18T19:25:16.343Z,100138.25
2019-05-18T19:30:24.487Z,100150.33
2019-05-18T19:35:33.288Z,100151.11
2019-05-18T19:40:38.440Z,100152.01
2019-05-18T19:45:45.435Z,100154.07
2019-05-18T19:50:54.838Z,100160.41
2019-05-18T19:56:04.618Z,100172.58
2019-05-18T20:01:15.312Z,100168.23
2019-05-18T20:06:25.538Z,100165.00
2019-05-18T20:11:35.536Z,100179.09
2019-05-18T20:16:48.725Z,100184.01
2019-05-18T20:21:59.638Z,100180.70
2019-05-18T20:27:07.968Z,100177.79
2019-05-18T20:32:18.554Z,100186.30
2019-05-18T20:37:24.143Z,100186.70
2019-05-18T20:42:28.176Z,100190.17
2019-05-18T20:47:33.168Z,100187.98
2019-05-18T20:52:37.209Z,100188.78
2019-05-18T20:57:41.606Z,100184.42
2019-05-18T21:02:45.701Z,100181.80
2019-05-18T21:07:49.898Z,100191.95
2019-05-18T21:12:54.018Z,100184.07
2019-05-18T21:17:58.133Z,100193.48
2019-05-18T21:23:02.373Z,100197.56
2019-05-18T21:28:06.510Z,100199.45
2019-05-18T21:33:13.552Z,100199.63
2019-05-18T21:38:17.747Z,100196.53
2019-05-18T21:43:24.236Z,100193.31
2019-05-18T21:48:28.281Z,100183.59
2019-05-18T21:53:37.176Z,100186.98
2019-05-18T21:58:46.377Z,100186.25
2019-05-18T22:03:57.246Z,100186.73
2019-05-18T22:09:07.261Z,100181.34
2019-05-18T22:14:18.767Z,100189.00
2019-05-18T22:19:27.964Z,100179.83
2019-05-18T22:24:37.266Z,100175.75
2019-05-18T22:29:47.208Z,100175.05
2019-05-18T22:34:56.365Z,100175.47
2019-05-18T22:40:04.661Z,100172.00
2019-05-18T22:45:14.332Z,100178.23
2019-05-18T22:50:22.066Z,100174.41
2019-05-18T22:55:29.718Z,100178.27
2019-05-18T23:00:36.709Z,100179.53
2019-05-18T23:05:44.050Z,100184.34
2019-05-18T23:10:50.332Z,100182.77
2019-05-18T23:15:56.816Z,100185.77
2019-05-18T23:21:03.569Z,100187.88
2019-05-18T23:26:11.569Z,100185.52
2019-05-18T23:31:14.348Z,100179.54
2019-05-18T23:36:18.482Z,100172.27
2019-05-18T23:41:22.550Z,100174.78
2019-05-18T23:46:26.579Z,100177.38
2019-05-18T23:51:30.695Z,100172.16
2019-05-18T23:56:34.897Z,100172.45
